Overview Statistics Trail Chart Weather Telemetry Raw packets
 

This is the latest recevied weather packets stored in our database for station/object KJ5FA-9. If no packets are shown the sender has not sent any weather packets the latest 10 day(s).

<< 10 11 12 13 14 15 16 >>
Time Temp. Humidity Pressure Rain* Wind** Luminosity Snow
1788110171 33.33° C 37% 1018.2 hPa 0 mm 1.79 m/s, 199° - -
1788109764 33.89° C 36% 1018.4 hPa 0 mm - - -
1788108372 32.78° C 40% 1018.5 hPa 0 mm 1.34 m/s, 217° - -
1788108264 32.22° C 40% 1018.6 hPa 0 mm - - -
1788106764 31.67° C 47% 1018.7 hPa 0 mm - - -
1788106572 31.11° C 46% 1018.9 hPa 0 mm 0 m/s - -
1788105264 30° C 50% 1019 hPa 0 mm - - -
1788104771 29.44° C 51% 1018.9 hPa 0 mm 0.45 m/s, 178° - -
1788103764 28.33° C 56% 1019 hPa 0 mm - - -
1788102972 27.22° C 58% 1019.1 hPa 0 mm 0.89 m/s, 256° - -
1788102265 26.67° C 57% 1019.3 hPa 0 mm - - -
1788101172 26.11° C 56% 1019.2 hPa 0 mm 0.89 m/s, 202° - -
1788100764 25.56° C 57% 1019.4 hPa 0 mm - - -
1788099371 24.44° C 67% 1019.5 hPa 0 mm 0 m/s - -
1788099264 24.44° C 68% 1019.5 hPa 0 mm - - -
1788097764 22.22° C 77% 1019.8 hPa 0 mm - - -
1788097571 22.22° C 78% 1019.7 hPa 0 mm 0.45 m/s, 45° - -
1788096264 20.56° C 83% 1019.6 hPa 0 mm - - -
1788095772 20° C 85% 1019.8 hPa 0 mm 0.89 m/s, 81° - -
1788094764 19.44° C 88% 1019.6 hPa 0 mm - - -
1788093971 18.89° C 91% 1019.6 hPa 0 mm 0.89 m/s, 314° - -
1788093264 18.33° C 91% 1019.7 hPa 0 mm - - -
1788092172 17.78° C 92% 1019.5 hPa 0 mm 0.89 m/s, 69° - -
1788091764 18.33° C 91% 1019.4 hPa 0 mm - - -
1788090371 18.33° C 89% 1019.3 hPa 0 mm 0.45 m/s, 136° - -

* Rain latest hour (hover to see other rain measurements)
** Current wind speed in m/s (hover to see current wind gust speed)